首页
METAR-TAF:

METAR-TAF

机场 :

Albert J. Ellis Airport

傑克遜維爾, 北卡罗来纳州, 美国

纬度: 34-50N, 经度: 077-37W, 海拔: 29米

当前天气观测

该预报发布于22分钟前的10:56 UTC
风速15节,风向北转西北,有时为23节阵风,在西转西北之间变化
温度 10°C
湿度 46%
气压 1017 hPa
能見度: 16.1公里
天空无云

METAR: KOAJ 211056Z AUTO 33015G23KT 290V360 10SM CLR 10/M01 A3003 RMK AO2 SLP174 T01001011

时间: 07:18 (11:18 UTC)

预报

该预报发布于5小时和49分钟前的05:29 UTC
预报有效从21日的 06点(UTC)到 22日的 06点(UTC)
风速9节,风向西
能見度: 10公里
少量云层高于5000英尺
从 21日的 1000点(UTC)
风速13节,风向西北,有时为24节阵风
能見度: 10公里
少量云层高于25000英尺
从 21日的 2000点(UTC)
风速8节,风向北转西北
能見度: 10公里
天空无云
从 22日的 0000点(UTC)
风速3节,风向多变
能見度: 10公里
天空无云

TAF: KOAJ 210529Z 2106/2206 28009KT P6SM FEW050 FM211000 32013G24KT P6SM FEW250 FM212000 33008KT P6SM SKC FM220000 VRB03KT P6SM SKC AMD LTD TO CLD VIS AND WIND

超过4000个机场的气象观测和天气预报(METAR&TAF报告)。

可查询的气象台以黄色和红色小点在地图上表示。

将鼠标移到小点上方,可查看气象台名称。

然后点击查看天气观测和预报。

如需切换地图:点击带黑十字的绿色按钮放大地图;点击带横线的绿色按钮缩小地图;或者点击绿色箭头查看邻近地区的地图。


METAR-TAF: